Карточка аэропорта UATT

Внимание!
Информация на этой странице в стадии наполнения.
Если вы не увидели какой-то информации, или заметили неточность - пожалуйста сообщите нам!
Спасибо!
Команда RU-STAFF
Название аэропортаАктобе
Название аэропорта (англ.)Aktobe
Превышение738 ft. (224.9 m.)
Координаты50°14.748', 57°12.402'
Высота перехода10000ft
Эшелон переходаFL120, QNH<733:FL130
Коды ответчика3440-3447, 3540-3547
Зона ОрВДАктобе РПИ (UATT)
Данные METARUATT 140430Z 31006MPS 9999 BKN014 07/03 Q1010 TEMPO BKN003 RMK QFE738/0984
Проноз погоды (TAF)UATT 131701Z 1318/1418 26003MPS 3100 BR BKN011 BKN033CB TX12/1412Z TN05/1401Z TEMPO 1318/1324 30008MPS 2000 BKN005 BECMG 1400/1402 31006MPS TEMPO 1400/1405 1000 -SHRA BR BKN003 BKN030CB BECMG 1405/1406 9999 NSW TEMPO 1406/1412 30011MPS
NOTAMshow/hide NOTAM
AWOS   TABLE

Информация о ВПП

ВПП Длина ВПП (м.) Покрытие Курс ВПП Частота ILS
313202Бетон315111.7
133202Бетон135111.7

Диспетчерские позиции




Спутниковое изображение